Capt. Joe — WDF7584 — position and weather

sailwx.info

Track history (hours):
 
Tides and Currents Weather Stations Pressure Air Temp Water Temp Dewpoint Dewpoint Depression Visibility Wind Speed Wind Dir Waves Ship Positions

Capt. Joe

Owner: Princess Elena, Inc., Gloucester, MA. More information available from US FCC via Universal Licensing System and Coast Guard Vessel Documentation Center.

Last reported at 2017-Oct-12 18:25 UTC. Time now 2017-Oct-17 22:56 UTC.
Position N 42°30' W 070°15'.

Length 25 m; draft 14 m.

Type: Fishing. MMSI: 367485980.

Date/timePositionNaut miles runAvg speedWind from/ knotsBaromVisibWave heightAir tempDewpointWater temp
2017-Oct-12 18:25N 42°30' W 070°15'3 7.1
2017-Oct-12 18:00N 42°31' W 070°19'3 6.9
2017-Oct-12 17:30N 42°32' W 070°23'4 7.1
2017-Oct-12 17:00N 42°32' W 070°28'4 7.2
2017-Oct-12 16:30N 42°33' W 070°33'4 7.3
2017-Oct-12 16:00N 42°34' W 070°38'3 6.1
2017-Oct-12 15:30N 42°36' W 070°40'1 2.2
2017-Oct-12 15:00N 42°37' W 070°39'0 0.0
2017-Oct-12 14:30N 42°37' W 070°39'0 0.0
2017-Oct-12 14:00N 42°37' W 070°39'0 0.0
2017-Oct-12 13:30N 42°37' W 070°39'0 0.0
2017-Oct-12 13:00N 42°37' W 070°39'0 0.0
2017-Oct-12 12:30N 42°37' W 070°39'0 0.0
2017-Oct-12 12:00N 42°37' W 070°39'0 0.0
2017-Oct-12 11:30N 42°37' W 070°39'0 0.0
2017-Oct-12 11:00N 42°37' W 070°39'0 0.0
2017-Oct-12 10:30N 42°37' W 070°39'0 0.0
2017-Oct-12 10:00N 42°37' W 070°39'0 0.0
2017-Oct-12 09:30N 42°37' W 070°39'0 0.0
2017-Oct-12 09:00N 42°37' W 070°39'0 0.0
2017-Oct-12 08:30N 42°37' W 070°39'0 0.0
2017-Oct-12 08:00N 42°37' W 070°39'0 0.0
2017-Oct-12 07:30N 42°37' W 070°39'0 0.0
2017-Oct-12 07:00N 42°37' W 070°39'0 0.0
2017-Oct-12 06:30N 42°37' W 070°39'0 0.0
2017-Oct-12 06:00N 42°37' W 070°39'0 0.0
2017-Oct-12 05:30N 42°37' W 070°39'0 0.0
2017-Oct-12 05:00N 42°37' W 070°39'0 0.0
2017-Oct-12 04:30N 42°37' W 070°39'0 0.0
2017-Oct-12 04:00N 42°37' W 070°39'0 0.0
2017-Oct-12 03:30N 42°37' W 070°39'0 0.0
2017-Oct-12 03:00N 42°37' W 070°39'0 0.0
2017-Oct-12 02:30N 42°37' W 070°39'0 0.0
2017-Oct-12 02:00N 42°37' W 070°39'0 0.0
2017-Oct-12 01:30N 42°37' W 070°39'0 0.0
2017-Oct-12 01:00N 42°37' W 070°39'0 0.0
2017-Oct-12 00:30N 42°37' W 070°39'0 0.0
2017-Oct-12 00:00N 42°37' W 070°39'0 0.0
2017-Oct-11 23:30N 42°37' W 070°39'0 0.0
2017-Oct-11 23:00N 42°37' W 070°39'0 0.0
2017-Oct-11 22:30N 42°37' W 070°39'0 0.0
2017-Oct-11 22:00N 42°37' W 070°39'0 0.0
2017-Oct-11 21:30N 42°37' W 070°39'0 0.2
2017-Oct-11 21:00N 42°37' W 070°39'0 0.0
2017-Oct-11 20:30N 42°37' W 070°39'0 0.0
2017-Oct-11 20:00N 42°37' W 070°39'0 0.0
2017-Oct-11 19:30N 42°37' W 070°39'0 0.0
2017-Oct-11 19:00N 42°37' W 070°39'0 0.0
2017-Oct-11 18:30N 42°37' W 070°39'0 0.0
2017-Oct-11 18:00N 42°37' W 070°39'0 0.0
2017-Oct-11 17:30N 42°37' W 070°39'0 0.0
2017-Oct-11 17:00N 42°37' W 070°39'0 0.0
2017-Oct-11 00:00N 42°37' W 070°39'0 0.0
2017-Oct-10 23:30N 42°37' W 070°39'0 0.0
2017-Oct-10 23:00N 42°37' W 070°39'0 0.0
2017-Oct-10 22:30N 42°37' W 070°39'0 0.0
2017-Oct-10 22:00N 42°37' W 070°39'0 0.0
2017-Oct-10 21:30N 42°37' W 070°39'0 0.0
2017-Oct-10 21:00N 42°37' W 070°39'0 0.0
2017-Oct-10 20:30N 42°37' W 070°39'0 0.0
2017-Oct-10 20:00N 42°37' W 070°39'0 0.0
2017-Oct-10 19:30N 42°37' W 070°39'0 0.0
2017-Oct-10 19:00N 42°37' W 070°39'0 0.0
2017-Oct-10 18:30N 42°37' W 070°39'0 0.0
2017-Oct-10 18:00N 42°37' W 070°39'0 0.0
2017-Oct-10 17:30N 42°37' W 070°39'0 0.0
2017-Oct-10 17:00N 42°37' W 070°39'0 0.0
2017-Oct-10 16:30N 42°37' W 070°39'0 0.2
2017-Oct-10 16:00N 42°37' W 070°39'0 0.2
2017-Oct-10 15:30N 42°37' W 070°39'0 0.3
2017-Oct-10 15:00N 42°37' W 070°39'0 0.0
2017-Oct-10 14:00N 42°37' W 070°39'0 0.0
2017-Oct-10 13:30N 42°37' W 070°39'0 0.4
2017-Oct-10 13:00N 42°37' W 070°39'0 0.4
2017-Oct-10 12:30N 42°37' W 070°39'0 0.0
2017-Oct-10 12:00N 42°37' W 070°39'0 0.9
2017-Oct-10 11:30N 42°37' W 070°40'0 0.1
2017-Oct-10 11:00N 42°37' W 070°40'0 0.0
2017-Oct-10 10:30N 42°37' W 070°40'0 0.0
2017-Oct-10 10:00N 42°37' W 070°40'0 0.0
2017-Oct-10 09:30N 42°37' W 070°40'0 0.0
2017-Oct-10 09:00N 42°37' W 070°40'0 0.0
2017-Oct-10 08:30N 42°37' W 070°40'0 0.0
2017-Oct-10 08:00N 42°37' W 070°40'0 0.0
2017-Oct-10 07:30N 42°37' W 070°40'0 0.0
2017-Oct-10 07:00N 42°37' W 070°40'0 0.0
2017-Oct-10 06:30N 42°37' W 070°40'0 0.0
2017-Oct-10 06:00N 42°37' W 070°40'0 0.0
2017-Oct-10 05:30N 42°37' W 070°40'0 0.0
2017-Oct-10 05:00N 42°37' W 070°40'0 0.0
2017-Oct-10 04:30N 42°37' W 070°40'0 0.0
2017-Oct-10 04:00N 42°37' W 070°40'0 0.0
2017-Oct-10 03:30N 42°37' W 070°40'0 0.0
2017-Oct-10 03:00N 42°37' W 070°40'0 0.0
2017-Oct-10 02:30N 42°37' W 070°40'0 0.0
2017-Oct-10 02:00N 42°37' W 070°40'0 0.0
2017-Oct-10 01:30N 42°37' W 070°40'0 0.0
2017-Oct-10 01:00N 42°37' W 070°40'0 0.0
2017-Oct-10 00:30N 42°37' W 070°40'0 0.0
2017-Oct-10 00:00N 42°37' W 070°40'0 0.0
2017-Oct-09 23:30N 42°37' W 070°40'0 0.0
2017-Oct-09 23:00N 42°37' W 070°40'0 0.0
2017-Oct-09 22:30N 42°37' W 070°40'0 0.0
2017-Oct-09 22:00N 42°37' W 070°40'0 0.0
2017-Oct-09 21:30N 42°37' W 070°40'0 0.0
2017-Oct-09 21:00N 42°37' W 070°40'0 0.0
2017-Oct-09 20:30N 42°37' W 070°40'0 0.0
2017-Oct-09 20:00N 42°37' W 070°40'0 0.0
2017-Oct-09 19:30N 42°37' W 070°40'0 0.0
2017-Oct-09 19:00N 42°37' W 070°40'0 0.0
2017-Oct-09 18:30N 42°37' W 070°40'0 0.0
2017-Oct-09 18:00N 42°37' W 070°40'0 0.0
2017-Oct-09 17:30N 42°37' W 070°40'0 0.0
2017-Oct-09 17:00N 42°37' W 070°40'0 0.0
2017-Oct-09 16:30N 42°37' W 070°40'0 0.0
2017-Oct-09 16:00N 42°37' W 070°40'0 0.0
2017-Oct-09 15:30N 42°37' W 070°40'2 3.2
2017-Oct-09 15:00N 42°35' W 070°40'3 5.9
2017-Oct-09 14:30N 42°35' W 070°36'4 7.0
2017-Oct-09 14:00N 42°37' W 070°32'3 6.2
2017-Oct-09 13:30N 42°38' W 070°28'4 7.1
2017-Oct-09 13:00N 42°39' W 070°23'4 7.4
2017-Oct-09 12:30N 42°40' W 070°19'4 7.5
2017-Oct-09 12:00N 42°42' W 070°14'4 7.5
2017-Oct-09 11:27N 42°43' W 070°09'3 7.1
2017-Oct-09 11:00N 42°44' W 070°05'4 7.0
2017-Oct-09 10:28N 42°46' W 069°60'3 7.1
2017-Oct-09 10:00N 42°47' W 069°56'4 7.0
2017-Oct-09 09:26N 42°48' W 069°51'3 7.2
2017-Oct-09 09:00N 42°50' W 069°47'4 7.3
2017-Oct-09 08:30N 42°51' W 069°42'4 7.2
2017-Oct-09 08:00N 42°52' W 069°38'4 7.2
2017-Oct-09 07:28N 42°54' W 069°33'49 1.3
2017-Oct-07 19:00N 43°20' W 068°37'51 1.3
2017-Oct-06 02:35N 42°52' W 069°35'0 2.4
2017-Oct-06 02:30N 42°52' W 069°35'1 2.5
2017-Oct-06 02:00N 42°51' W 069°34'32 1.2
2017-Oct-04 23:13N 42°35' W 070°12'2 7.4
2017-Oct-04 23:00N 42°35' W 070°14'4 7.4
2017-Oct-04 22:30N 42°34' W 070°19'4 7.8
2017-Oct-04 22:00N 42°34' W 070°24'4 8.2
2017-Oct-04 21:30N 42°34' W 070°30'4 8.1
2017-Oct-04 21:00N 42°34' W 070°35'4 8.0
2017-Oct-04 20:30N 42°35' W 070°40'2 4.8
2017-Oct-04 20:00N 42°37' W 070°39'0 0.0
2017-Oct-04 19:30N 42°37' W 070°39'0 0.0
2017-Oct-04 19:00N 42°37' W 070°39'0 0.0
2017-Oct-04 18:30N 42°37' W 070°39'0 0.0
2017-Oct-04 18:00N 42°37' W 070°39'0 0.0
2017-Oct-04 17:30N 42°37' W 070°39'0 0.0
2017-Oct-04 17:00N 42°37' W 070°39'0 0.0
2017-Oct-04 16:30N 42°37' W 070°39'0 0.0
2017-Oct-04 16:00N 42°37' W 070°39'0 0.0
2017-Oct-04 15:30N 42°37' W 070°39'0 0.0
2017-Oct-04 15:00N 42°37' W 070°39'0 0.0
2017-Oct-04 14:30N 42°37' W 070°39'0 0.0
2017-Oct-04 14:00N 42°37' W 070°39'0 0.9
2017-Oct-04 13:30N 42°37' W 070°40'0 0.0
2017-Oct-04 13:00N 42°37' W 070°40'0 0.0
2017-Oct-04 12:30N 42°37' W 070°40'0 0.0
2017-Oct-04 12:00N 42°37' W 070°40'0 0.9
2017-Oct-04 11:30N 42°37' W 070°39'0 0.0
2017-Oct-04 11:00N 42°37' W 070°39'0 0.0
2017-Oct-04 10:30N 42°37' W 070°39'0 0.0
2017-Oct-04 10:00N 42°37' W 070°39'0 0.0
2017-Oct-04 09:30N 42°37' W 070°39'0 0.0
2017-Oct-04 09:00N 42°37' W 070°39'0 0.0
2017-Oct-04 08:30N 42°37' W 070°39'0 0.0
2017-Oct-04 08:00N 42°37' W 070°39'0 0.0
2017-Oct-04 07:30N 42°37' W 070°39'0 0.0
2017-Oct-04 07:00N 42°37' W 070°39'0 0.0
2017-Oct-04 06:30N 42°37' W 070°39'0 0.0
2017-Oct-04 06:00N 42°37' W 070°39'0 0.0
2017-Oct-04 05:30N 42°37' W 070°39'0 0.0
2017-Oct-04 05:00N 42°37' W 070°39'0 0.0
2017-Oct-04 04:30N 42°37' W 070°39'0 0.0
2017-Oct-04 04:00N 42°37' W 070°39'0 0.0
2017-Oct-04 03:30N 42°37' W 070°39'0 0.0
2017-Oct-04 03:00N 42°37' W 070°39'0 0.0
2017-Oct-04 02:30N 42°37' W 070°39'0 0.0
2017-Oct-04 02:00N 42°37' W 070°39'0 0.0
2017-Oct-04 01:30N 42°37' W 070°39'0 0.0
2017-Oct-04 01:00N 42°37' W 070°39'0 0.0
2017-Oct-04 00:30N 42°37' W 070°39'0 0.0
2017-Oct-04 00:00N 42°37' W 070°39'0 0.0
2017-Oct-03 23:30N 42°37' W 070°39'0 0.0
2017-Oct-03 23:00N 42°37' W 070°39'0 0.0
2017-Oct-03 22:30N 42°37' W 070°39'0 0.0
2017-Oct-03 22:00N 42°37' W 070°39'0 0.0
2017-Oct-03 21:30N 42°37' W 070°39'0 0.0
2017-Oct-03 21:00N 42°37' W 070°39'0 0.0
2017-Oct-03 20:30N 42°37' W 070°39'0 0.0
2017-Oct-03 20:00N 42°37' W 070°39'0 0.0
2017-Oct-03 19:30N 42°37' W 070°39'0 0.0
2017-Oct-03 19:00N 42°37' W 070°39'0 0.0
2017-Oct-03 18:30N 42°37' W 070°39'0 0.0
2017-Oct-03 18:00N 42°37' W 070°39'0 0.0
2017-Oct-03 17:30N 42°37' W 070°39'0 0.0
2017-Oct-03 17:00N 42°37' W 070°39'0 0.0
2017-Oct-03 16:30N 42°37' W 070°39'0 0.0
2017-Oct-03 16:00N 42°37' W 070°39'0 0.0
2017-Oct-03 15:30N 42°37' W 070°39'0 0.0
2017-Oct-03 15:00N 42°37' W 070°39'0 0.0
2017-Oct-03 14:00N 42°37' W 070°39'0 0.0
2017-Oct-03 13:30N 42°37' W 070°39'0 0.0
2017-Oct-03 13:00N 42°37' W 070°39'0 0.0
2017-Oct-03 12:30N 42°37' W 070°39'0 0.0
2017-Oct-03 12:00N 42°37' W 070°39'0 0.0
2017-Oct-03 11:30N 42°37' W 070°39'0 0.0
2017-Oct-03 11:00N 42°37' W 070°39'0 0.0
2017-Oct-03 10:30N 42°37' W 070°39'0 0.0
2017-Oct-03 10:00N 42°37' W 070°39'0 0.0
2017-Oct-03 09:30N 42°37' W 070°39'0 0.0
2017-Oct-03 09:00N 42°37' W 070°39'0 0.0
2017-Oct-03 08:30N 42°37' W 070°39'0 0.0
2017-Oct-03 08:00N 42°37' W 070°39'0 0.0
2017-Oct-03 07:30N 42°37' W 070°39'0 0.0
2017-Oct-03 07:00N 42°37' W 070°39'0 0.0
2017-Oct-03 06:30N 42°37' W 070°39'0 0.0
2017-Oct-03 06:00N 42°37' W 070°39'0 0.0
2017-Oct-03 05:30N 42°37' W 070°39'0 0.0
2017-Oct-03 05:00N 42°37' W 070°39'0 0.0
2017-Oct-03 04:30N 42°37' W 070°39'0 0.0
2017-Oct-03 04:00N 42°37' W 070°39'0 0.0
2017-Oct-03 03:30N 42°37' W 070°39'0 0.0
2017-Oct-03 03:00N 42°37' W 070°39'0 0.0
2017-Oct-03 02:30N 42°37' W 070°39'0 0.0
2017-Oct-03 02:00N 42°37' W 070°39'0 0.0
2017-Oct-03 01:30N 42°37' W 070°39'0 0.0
2017-Oct-03 01:00N 42°37' W 070°39'0 0.0
2017-Oct-03 00:30N 42°37' W 070°39'0 0.0
2017-Oct-03 00:00N 42°37' W 070°39'0 0.0
2017-Oct-02 23:30N 42°37' W 070°39'0 0.0
2017-Oct-02 23:00N 42°37' W 070°39'0 0.0
2017-Oct-02 22:30N 42°37' W 070°39'0 0.0
2017-Oct-02 22:00N 42°37' W 070°39'0 0.0
2017-Oct-02 21:30N 42°37' W 070°39'0 0.0
2017-Oct-02 21:00N 42°37' W 070°39'0 0.0
2017-Oct-02 20:30N 42°37' W 070°39'0 0.0
2017-Oct-02 20:00N 42°37' W 070°39'0 0.0
2017-Oct-02 19:30N 42°37' W 070°39'0 0.0
2017-Oct-02 19:00N 42°37' W 070°39'0 0.0
2017-Oct-02 18:30N 42°37' W 070°39'  
Track history (hours):
 
Tides and Currents Weather Stations Pressure Air Temp Water Temp Dewpoint Dewpoint Depression Visibility Wind Speed Wind Dir Waves Ship Positions

Capt. Joe

Owner: Princess Elena, Inc., Gloucester, MA. More information available from US FCC via Universal Licensing System and Coast Guard Vessel Documentation Center.

Last reported at 2017-Oct-12 18:25 UTC. Time now 2017-Oct-17 22:56 UTC.
Position N 42°30' W 070°15'.

Length 25 m; draft 14 m.

Type: Fishing. MMSI: 367485980.

Date/timePositionNaut miles runAvg speedWind from/ knotsBaromVisibWave heightAir tempDewpointWater temp
2017-Oct-12 18:25N 42°30' W 070°15'3 7.1
2017-Oct-12 18:00N 42°31' W 070°19'3 6.9
2017-Oct-12 17:30N 42°32' W 070°23'4 7.1
2017-Oct-12 17:00N 42°32' W 070°28'4 7.2
2017-Oct-12 16:30N 42°33' W 070°33'4 7.3
2017-Oct-12 16:00N 42°34' W 070°38'3 6.1
2017-Oct-12 15:30N 42°36' W 070°40'1 2.2
2017-Oct-12 15:00N 42°37' W 070°39'0 0.0
2017-Oct-12 14:30N 42°37' W 070°39'0 0.0
2017-Oct-12 14:00N 42°37' W 070°39'0 0.0
2017-Oct-12 13:30N 42°37' W 070°39'0 0.0
2017-Oct-12 13:00N 42°37' W 070°39'0 0.0
2017-Oct-12 12:30N 42°37' W 070°39'0 0.0
2017-Oct-12 12:00N 42°37' W 070°39'0 0.0
2017-Oct-12 11:30N 42°37' W 070°39'0 0.0
2017-Oct-12 11:00N 42°37' W 070°39'0 0.0
2017-Oct-12 10:30N 42°37' W 070°39'0 0.0
2017-Oct-12 10:00N 42°37' W 070°39'0 0.0
2017-Oct-12 09:30N 42°37' W 070°39'0 0.0
2017-Oct-12 09:00N 42°37' W 070°39'0 0.0
2017-Oct-12 08:30N 42°37' W 070°39'0 0.0
2017-Oct-12 08:00N 42°37' W 070°39'0 0.0
2017-Oct-12 07:30N 42°37' W 070°39'0 0.0
2017-Oct-12 07:00N 42°37' W 070°39'0 0.0
2017-Oct-12 06:30N 42°37' W 070°39'0 0.0
2017-Oct-12 06:00N 42°37' W 070°39'0 0.0
2017-Oct-12 05:30N 42°37' W 070°39'0 0.0
2017-Oct-12 05:00N 42°37' W 070°39'0 0.0
2017-Oct-12 04:30N 42°37' W 070°39'0 0.0
2017-Oct-12 04:00N 42°37' W 070°39'0 0.0
2017-Oct-12 03:30N 42°37' W 070°39'0 0.0
2017-Oct-12 03:00N 42°37' W 070°39'0 0.0
2017-Oct-12 02:30N 42°37' W 070°39'0 0.0
2017-Oct-12 02:00N 42°37' W 070°39'0 0.0
2017-Oct-12 01:30N 42°37' W 070°39'0 0.0
2017-Oct-12 01:00N 42°37' W 070°39'0 0.0
2017-Oct-12 00:30N 42°37' W 070°39'0 0.0
2017-Oct-12 00:00N 42°37' W 070°39'0 0.0
2017-Oct-11 23:30N 42°37' W 070°39'0 0.0
2017-Oct-11 23:00N 42°37' W 070°39'0 0.0
2017-Oct-11 22:30N 42°37' W 070°39'0 0.0
2017-Oct-11 22:00N 42°37' W 070°39'0 0.0
2017-Oct-11 21:30N 42°37' W 070°39'0 0.2
2017-Oct-11 21:00N 42°37' W 070°39'0 0.0
2017-Oct-11 20:30N 42°37' W 070°39'0 0.0
2017-Oct-11 20:00N 42°37' W 070°39'0 0.0
2017-Oct-11 19:30N 42°37' W 070°39'0 0.0
2017-Oct-11 19:00N 42°37' W 070°39'0 0.0
2017-Oct-11 18:30N 42°37' W 070°39'0 0.0
2017-Oct-11 18:00N 42°37' W 070°39'0 0.0
2017-Oct-11 17:30N 42°37' W 070°39'0 0.0
2017-Oct-11 17:00N 42°37' W 070°39'0 0.0
2017-Oct-11 00:00N 42°37' W 070°39'0 0.0
2017-Oct-10 23:30N 42°37' W 070°39'0 0.0
2017-Oct-10 23:00N 42°37' W 070°39'0 0.0
2017-Oct-10 22:30N 42°37' W 070°39'0 0.0
2017-Oct-10 22:00N 42°37' W 070°39'0 0.0
2017-Oct-10 21:30N 42°37' W 070°39'0 0.0
2017-Oct-10 21:00N 42°37' W 070°39'0 0.0
2017-Oct-10 20:30N 42°37' W 070°39'0 0.0
2017-Oct-10 20:00N 42°37' W 070°39'0 0.0
2017-Oct-10 19:30N 42°37' W 070°39'0 0.0
2017-Oct-10 19:00N 42°37' W 070°39'0 0.0
2017-Oct-10 18:30N 42°37' W 070°39'0 0.0
2017-Oct-10 18:00N 42°37' W 070°39'0 0.0
2017-Oct-10 17:30N 42°37' W 070°39'0 0.0
2017-Oct-10 17:00N 42°37' W 070°39'0 0.0
2017-Oct-10 16:30N 42°37' W 070°39'0 0.2
2017-Oct-10 16:00N 42°37' W 070°39'0 0.2
2017-Oct-10 15:30N 42°37' W 070°39'0 0.3
2017-Oct-10 15:00N 42°37' W 070°39'0 0.0
2017-Oct-10 14:00N 42°37' W 070°39'0 0.0
2017-Oct-10 13:30N 42°37' W 070°39'0 0.4
2017-Oct-10 13:00N 42°37' W 070°39'0 0.4
2017-Oct-10 12:30N 42°37' W 070°39'0 0.0
2017-Oct-10 12:00N 42°37' W 070°39'0 0.9
2017-Oct-10 11:30N 42°37' W 070°40'0 0.1
2017-Oct-10 11:00N 42°37' W 070°40'0 0.0
2017-Oct-10 10:30N 42°37' W 070°40'0 0.0
2017-Oct-10 10:00N 42°37' W 070°40'0 0.0
2017-Oct-10 09:30N 42°37' W 070°40'0 0.0
2017-Oct-10 09:00N 42°37' W 070°40'0 0.0
2017-Oct-10 08:30N 42°37' W 070°40'0 0.0
2017-Oct-10 08:00N 42°37' W 070°40'0 0.0
2017-Oct-10 07:30N 42°37' W 070°40'0 0.0
2017-Oct-10 07:00N 42°37' W 070°40'0 0.0
2017-Oct-10 06:30N 42°37' W 070°40'0 0.0
2017-Oct-10 06:00N 42°37' W 070°40'0 0.0
2017-Oct-10 05:30N 42°37' W 070°40'0 0.0
2017-Oct-10 05:00N 42°37' W 070°40'0 0.0
2017-Oct-10 04:30N 42°37' W 070°40'0 0.0
2017-Oct-10 04:00N 42°37' W 070°40'0 0.0
2017-Oct-10 03:30N 42°37' W 070°40'0 0.0
2017-Oct-10 03:00N 42°37' W 070°40'0 0.0
2017-Oct-10 02:30N 42°37' W 070°40'0 0.0
2017-Oct-10 02:00N 42°37' W 070°40'0 0.0
2017-Oct-10 01:30N 42°37' W 070°40'0 0.0
2017-Oct-10 01:00N 42°37' W 070°40'0 0.0
2017-Oct-10 00:30N 42°37' W 070°40'0 0.0
2017-Oct-10 00:00N 42°37' W 070°40'0 0.0
2017-Oct-09 23:30N 42°37' W 070°40'0 0.0
2017-Oct-09 23:00N 42°37' W 070°40'0 0.0
2017-Oct-09 22:30N 42°37' W 070°40'0 0.0
2017-Oct-09 22:00N 42°37' W 070°40'0 0.0
2017-Oct-09 21:30N 42°37' W 070°40'0 0.0
2017-Oct-09 21:00N 42°37' W 070°40'0 0.0
2017-Oct-09 20:30N 42°37' W 070°40'0 0.0
2017-Oct-09 20:00N 42°37' W 070°40'0 0.0
2017-Oct-09 19:30N 42°37' W 070°40'0 0.0
2017-Oct-09 19:00N 42°37' W 070°40'0 0.0
2017-Oct-09 18:30N 42°37' W 070°40'0 0.0
2017-Oct-09 18:00N 42°37' W 070°40'0 0.0
2017-Oct-09 17:30N 42°37' W 070°40'0 0.0
2017-Oct-09 17:00N 42°37' W 070°40'0 0.0
2017-Oct-09 16:30N 42°37' W 070°40'0 0.0
2017-Oct-09 16:00N 42°37' W 070°40'0 0.0
2017-Oct-09 15:30N 42°37' W 070°40'2 3.2
2017-Oct-09 15:00N 42°35' W 070°40'3 5.9
2017-Oct-09 14:30N 42°35' W 070°36'4 7.0
2017-Oct-09 14:00N 42°37' W 070°32'3 6.2
2017-Oct-09 13:30N 42°38' W 070°28'4 7.1
2017-Oct-09 13:00N 42°39' W 070°23'4 7.4
2017-Oct-09 12:30N 42°40' W 070°19'4 7.5
2017-Oct-09 12:00N 42°42' W 070°14'4 7.5
2017-Oct-09 11:27N 42°43' W 070°09'3 7.1
2017-Oct-09 11:00N 42°44' W 070°05'4 7.0
2017-Oct-09 10:28N 42°46' W 069°60'3 7.1
2017-Oct-09 10:00N 42°47' W 069°56'4 7.0
2017-Oct-09 09:26N 42°48' W 069°51'3 7.2
2017-Oct-09 09:00N 42°50' W 069°47'4 7.3
2017-Oct-09 08:30N 42°51' W 069°42'4 7.2
2017-Oct-09 08:00N 42°52' W 069°38'4 7.2
2017-Oct-09 07:28N 42°54' W 069°33'49 1.3
2017-Oct-07 19:00N 43°20' W 068°37'51 1.3
2017-Oct-06 02:35N 42°52' W 069°35'0 2.4
2017-Oct-06 02:30N 42°52' W 069°35'1 2.5
2017-Oct-06 02:00N 42°51' W 069°34'32 1.2
2017-Oct-04 23:13N 42°35' W 070°12'2 7.4
2017-Oct-04 23:00N 42°35' W 070°14'4 7.4
2017-Oct-04 22:30N 42°34' W 070°19'4 7.8
2017-Oct-04 22:00N 42°34' W 070°24'4 8.2
2017-Oct-04 21:30N 42°34' W 070°30'4 8.1
2017-Oct-04 21:00N 42°34' W 070°35'4 8.0
2017-Oct-04 20:30N 42°35' W 070°40'2 4.8
2017-Oct-04 20:00N 42°37' W 070°39'0 0.0
2017-Oct-04 19:30N 42°37' W 070°39'0 0.0
2017-Oct-04 19:00N 42°37' W 070°39'0 0.0
2017-Oct-04 18:30N 42°37' W 070°39'0 0.0
2017-Oct-04 18:00N 42°37' W 070°39'0 0.0
2017-Oct-04 17:30N 42°37' W 070°39'0 0.0
2017-Oct-04 17:00N 42°37' W 070°39'0 0.0
2017-Oct-04 16:30N 42°37' W 070°39'0 0.0
2017-Oct-04 16:00N 42°37' W 070°39'0 0.0
2017-Oct-04 15:30N 42°37' W 070°39'0 0.0
2017-Oct-04 15:00N 42°37' W 070°39'0 0.0
2017-Oct-04 14:30N 42°37' W 070°39'0 0.0
2017-Oct-04 14:00N 42°37' W 070°39'0 0.9
2017-Oct-04 13:30N 42°37' W 070°40'0 0.0
2017-Oct-04 13:00N 42°37' W 070°40'0 0.0
2017-Oct-04 12:30N 42°37' W 070°40'0 0.0
2017-Oct-04 12:00N 42°37' W 070°40'0 0.9
2017-Oct-04 11:30N 42°37' W 070°39'0 0.0
2017-Oct-04 11:00N 42°37' W 070°39'0 0.0
2017-Oct-04 10:30N 42°37' W 070°39'0 0.0
2017-Oct-04 10:00N 42°37' W 070°39'0 0.0
2017-Oct-04 09:30N 42°37' W 070°39'0 0.0
2017-Oct-04 09:00N 42°37' W 070°39'0 0.0
2017-Oct-04 08:30N 42°37' W 070°39'0 0.0
2017-Oct-04 08:00N 42°37' W 070°39'0 0.0
2017-Oct-04 07:30N 42°37' W 070°39'0 0.0
2017-Oct-04 07:00N 42°37' W 070°39'0 0.0
2017-Oct-04 06:30N 42°37' W 070°39'0 0.0
2017-Oct-04 06:00N 42°37' W 070°39'0 0.0
2017-Oct-04 05:30N 42°37' W 070°39'0 0.0
2017-Oct-04 05:00N 42°37' W 070°39'0 0.0
2017-Oct-04 04:30N 42°37' W 070°39'0 0.0
2017-Oct-04 04:00N 42°37' W 070°39'0 0.0
2017-Oct-04 03:30N 42°37' W 070°39'0 0.0
2017-Oct-04 03:00N 42°37' W 070°39'0 0.0
2017-Oct-04 02:30N 42°37' W 070°39'0 0.0
2017-Oct-04 02:00N 42°37' W 070°39'0 0.0
2017-Oct-04 01:30N 42°37' W 070°39'0 0.0
2017-Oct-04 01:00N 42°37' W 070°39'0 0.0
2017-Oct-04 00:30N 42°37' W 070°39'0 0.0
2017-Oct-04 00:00N 42°37' W 070°39'0 0.0
2017-Oct-03 23:30N 42°37' W 070°39'0 0.0
2017-Oct-03 23:00N 42°37' W 070°39'0 0.0
2017-Oct-03 22:30N 42°37' W 070°39'0 0.0
2017-Oct-03 22:00N 42°37' W 070°39'0 0.0
2017-Oct-03 21:30N 42°37' W 070°39'0 0.0
2017-Oct-03 21:00N 42°37' W 070°39'0 0.0
2017-Oct-03 20:30N 42°37' W 070°39'0 0.0
2017-Oct-03 20:00N 42°37' W 070°39'0 0.0
2017-Oct-03 19:30N 42°37' W 070°39'0 0.0
2017-Oct-03 19:00N 42°37' W 070°39'0 0.0
2017-Oct-03 18:30N 42°37' W 070°39'0 0.0
2017-Oct-03 18:00N 42°37' W 070°39'0 0.0
2017-Oct-03 17:30N 42°37' W 070°39'0 0.0
2017-Oct-03 17:00N 42°37' W 070°39'0 0.0
2017-Oct-03 16:30N 42°37' W 070°39'0 0.0
2017-Oct-03 16:00N 42°37' W 070°39'0 0.0
2017-Oct-03 15:30N 42°37' W 070°39'0 0.0
2017-Oct-03 15:00N 42°37' W 070°39'0 0.0
2017-Oct-03 14:00N 42°37' W 070°39'0 0.0
2017-Oct-03 13:30N 42°37' W 070°39'0 0.0
2017-Oct-03 13:00N 42°37' W 070°39'0 0.0
2017-Oct-03 12:30N 42°37' W 070°39'0 0.0
2017-Oct-03 12:00N 42°37' W 070°39'0 0.0
2017-Oct-03 11:30N 42°37' W 070°39'0 0.0
2017-Oct-03 11:00N 42°37' W 070°39'0 0.0
2017-Oct-03 10:30N 42°37' W 070°39'0 0.0
2017-Oct-03 10:00N 42°37' W 070°39'0 0.0
2017-Oct-03 09:30N 42°37' W 070°39'0 0.0
2017-Oct-03 09:00N 42°37' W 070°39'0 0.0
2017-Oct-03 08:30N 42°37' W 070°39'0 0.0
2017-Oct-03 08:00N 42°37' W 070°39'0 0.0
2017-Oct-03 07:30N 42°37' W 070°39'0 0.0
2017-Oct-03 07:00N 42°37' W 070°39'0 0.0
2017-Oct-03 06:30N 42°37' W 070°39'0 0.0
2017-Oct-03 06:00N 42°37' W 070°39'0 0.0
2017-Oct-03 05:30N 42°37' W 070°39'0 0.0
2017-Oct-03 05:00N 42°37' W 070°39'0 0.0
2017-Oct-03 04:30N 42°37' W 070°39'0 0.0
2017-Oct-03 04:00N 42°37' W 070°39'0 0.0
2017-Oct-03 03:30N 42°37' W 070°39'0 0.0
2017-Oct-03 03:00N 42°37' W 070°39'0 0.0
2017-Oct-03 02:30N 42°37' W 070°39'0 0.0
2017-Oct-03 02:00N 42°37' W 070°39'0 0.0
2017-Oct-03 01:30N 42°37' W 070°39'0 0.0
2017-Oct-03 01:00N 42°37' W 070°39'0 0.0
2017-Oct-03 00:30N 42°37' W 070°39'0 0.0
2017-Oct-03 00:00N 42°37' W 070°39'0 0.0
2017-Oct-02 23:30N 42°37' W 070°39'0 0.0
2017-Oct-02 23:00N 42°37' W 070°39'0 0.0
2017-Oct-02 22:30N 42°37' W 070°39'0 0.0
2017-Oct-02 22:00N 42°37' W 070°39'0 0.0
2017-Oct-02 21:30N 42°37' W 070°39'0 0.0
2017-Oct-02 21:00N 42°37' W 070°39'0 0.0
2017-Oct-02 20:30N 42°37' W 070°39'0 0.0
2017-Oct-02 20:00N 42°37' W 070°39'0 0.0
2017-Oct-02 19:30N 42°37' W 070°39'0 0.0
2017-Oct-02 19:00N 42°37' W 070°39'0 0.0
2017-Oct-02 18:30N 42°37' W 070°39'  

Dump ship's entire track history